sensor_id;sensor_type;location;lat;lon;timestamp;pressure;altitude;pressure_sealevel;temperature;humidity
77281;BME280;66339;47.262;17.144;2023-02-01T00:01:24;100377.13;;;21.07;40.05
77281;BME280;66339;47.262;17.144;2023-02-01T00:03:53;100384.66;;;21.05;40.01
77281;BME280;66339;47.262;17.144;2023-02-01T00:06:21;100383.06;;;21.04;40.16
77281;BME280;66339;47.262;17.144;2023-02-01T00:08:51;100394.13;;;21.03;40.04
77281;BME280;66339;47.262;17.144;2023-02-01T00:11:24;100395.97;;;21.02;39.89
77281;BME280;66339;47.262;17.144;2023-02-01T00:13:52;100388.22;;;21.01;39.98
77281;BME280;66339;47.262;17.144;2023-02-01T00:16:21;100387.41;;;21.00;40.00
77281;BME280;66339;47.262;17.144;2023-02-01T00:18:55;100388.50;;;20.99;39.82
77281;BME280;66339;47.262;17.144;2023-02-01T00:21:28;100389.56;;;20.98;39.97
77281;BME280;66339;47.262;17.144;2023-02-01T00:23:56;100386.37;;;20.96;39.86
77281;BME280;66339;47.262;17.144;2023-02-01T00:26:38;100397.94;;;20.97;39.83
77281;BME280;66339;47.262;17.144;2023-02-01T00:29:11;100393.91;;;20.94;39.90
77281;BME280;66339;47.262;17.144;2023-02-01T00:31:42;100399.28;;;20.94;39.86
77281;BME280;66339;47.262;17.144;2023-02-01T00:34:16;100397.69;;;20.93;39.81
77281;BME280;66339;47.262;17.144;2023-02-01T00:36:43;100395.00;;;20.93;39.81
77281;BME280;66339;47.262;17.144;2023-02-01T00:39:11;100385.91;;;20.89;39.76
77281;BME280;66339;47.262;17.144;2023-02-01T00:41:42;100387.25;;;20.87;39.83
77281;BME280;66339;47.262;17.144;2023-02-01T00:44:12;100377.88;;;20.84;39.88
77281;BME280;66339;47.262;17.144;2023-02-01T00:46:44;100377.09;;;20.83;40.03
77281;BME280;66339;47.262;17.144;2023-02-01T00:49:12;100383.25;;;20.84;40.12
77281;BME280;66339;47.262;17.144;2023-02-01T00:51:39;100390.25;;;20.85;40.01
77281;BME280;66339;47.262;17.144;2023-02-01T00:54:13;100389.44;;;20.84;39.91
77281;BME280;66339;47.262;17.144;2023-02-01T00:56:43;100394.03;;;20.84;40.00
77281;BME280;66339;47.262;17.144;2023-02-01T00:59:13;100356.38;;;20.84;39.94
77281;BME280;66339;47.262;17.144;2023-02-01T01:01:46;100356.38;;;20.84;39.94
77281;BME280;66339;47.262;17.144;2023-02-01T01:04:16;100343.22;;;20.82;39.89
77281;BME280;66339;47.262;17.144;2023-02-01T01:06:46;100346.72;;;20.83;39.85
77281;BME280;66339;47.262;17.144;2023-02-01T01:09:16;100333.28;;;20.83;39.90
77281;BME280;66339;47.262;17.144;2023-02-01T01:11:46;100344.81;;;20.83;39.82
77281;BME280;66339;47.262;17.144;2023-02-01T01:14:18;100350.78;;;20.80;39.82
77281;BME280;66339;47.262;17.144;2023-02-01T01:16:52;100353.44;;;20.80;39.80
77281;BME280;66339;47.262;17.144;2023-02-01T01:19:23;100348.38;;;20.79;39.91
77281;BME280;66339;47.262;17.144;2023-02-01T01:21:56;100348.38;;;20.79;39.82
77281;BME280;66339;47.262;17.144;2023-02-01T01:24:26;100347.53;;;20.78;39.86
77281;BME280;66339;47.262;17.144;2023-02-01T01:27:02;100341.38;;;20.78;39.82
77281;BME280;66339;47.262;17.144;2023-02-01T01:29:30;100332.81;;;20.76;39.89
77281;BME280;66339;47.262;17.144;2023-02-01T01:32:03;100327.44;;;20.76;39.81
77281;BME280;66339;47.262;17.144;2023-02-01T01:34:37;100318.56;;;20.75;39.84
77281;BME280;66339;47.262;17.144;2023-02-01T01:37:07;100318.84;;;20.74;39.83
77281;BME280;66339;47.262;17.144;2023-02-01T01:39:44;100308.09;;;20.74;39.77
77281;BME280;66339;47.262;17.144;2023-02-01T01:42:18;100303.81;;;20.73;39.79
77281;BME280;66339;47.262;17.144;2023-02-01T01:45:06;100294.13;;;20.72;39.79
77281;BME280;66339;47.262;17.144;2023-02-01T01:47:41;100298.72;;;20.71;39.79
77281;BME280;66339;47.262;17.144;2023-02-01T01:50:13;100290.94;;;20.70;39.82
77281;BME280;66339;47.262;17.144;2023-02-01T01:52:50;100297.38;;;20.69;39.82
77281;BME280;66339;47.262;17.144;2023-02-01T01:55:32;100290.12;;;20.69;39.75
77281;BME280;66339;47.262;17.144;2023-02-01T01:58:13;100301.97;;;20.68;39.84
77281;BME280;66339;47.262;17.144;2023-02-01T02:00:44;100299.53;;;20.67;39.86
77281;BME280;66339;47.262;17.144;2023-02-01T02:03:19;100301.44;;;20.66;39.76
77281;BME280;66339;47.262;17.144;2023-02-01T02:05:50;100304.41;;;20.65;39.69
77281;BME280;66339;47.262;17.144;2023-02-01T02:08:26;100303.62;;;20.64;39.76
77281;BME280;66339;47.262;17.144;2023-02-01T02:10:54;100302.81;;;20.64;39.71
77281;BME280;66339;47.262;17.144;2023-02-01T02:13:26;100310.88;;;20.64;39.69
77281;BME280;66339;47.262;17.144;2023-02-01T02:18:48;100309.25;;;20.63;39.68
77281;BME280;66339;47.262;17.144;2023-02-01T02:26:51;100321.66;;;20.58;39.69
77281;BME280;66339;47.262;17.144;2023-02-01T02:30:02;100310.12;;;20.58;39.70
77281;BME280;66339;47.262;17.144;2023-02-01T02:39:10;100300.75;;;20.55;39.69
77281;BME280;66339;47.262;17.144;2023-02-01T02:50:25;100324.16;;;20.50;39.71
77281;BME280;66339;47.262;17.144;2023-02-01T02:53:03;100329.25;;;20.46;39.69
77281;BME280;66339;47.262;17.144;2023-02-01T02:55:36;100315.03;;;20.46;39.80
77281;BME280;66339;47.262;17.144;2023-02-01T02:58:10;100314.53;;;20.44;39.74
77281;BME280;66339;47.262;17.144;2023-02-01T03:00:45;100327.12;;;20.43;39.71
77281;BME280;66339;47.262;17.144;2023-02-01T03:03:18;100328.22;;;20.42;39.75
77281;BME280;66339;47.262;17.144;2023-02-01T03:05:52;100324.75;;;20.42;39.77
77281;BME280;66339;47.262;17.144;2023-02-01T03:08:26;100323.94;;;20.41;39.63
77281;BME280;66339;47.262;17.144;2023-02-01T03:11:13;100318.87;;;20.40;39.67
77281;BME280;66339;47.262;17.144;2023-02-01T03:13:59;100321.81;;;20.38;39.83
77281;BME280;66339;47.262;17.144;2023-02-01T03:16:47;100332.56;;;20.38;39.69
77281;BME280;66339;47.262;17.144;2023-02-01T03:19:25;100324.00;;;20.36;39.73
77281;BME280;66339;47.262;17.144;2023-02-01T03:22:08;100337.44;;;20.36;39.63
77281;BME280;66339;47.262;17.144;2023-02-01T03:24:45;100335.81;;;20.35;39.59
77281;BME280;66339;47.262;17.144;2023-02-01T03:27:29;100333.13;;;20.35;39.59
77281;BME280;66339;47.262;17.144;2023-02-01T03:30:42;100330.72;;;20.33;39.68
77281;BME280;66339;47.262;17.144;2023-02-01T03:33:19;100336.38;;;20.32;39.64
77281;BME280;66339;47.262;17.144;2023-02-01T03:41:27;100312.75;;;20.29;39.73
77281;BME280;66339;47.262;17.144;2023-02-01T03:44:16;100322.72;;;20.28;39.64
77281;BME280;66339;47.262;17.144;2023-02-01T03:46:52;100318.69;;;20.26;39.72
77281;BME280;66339;47.262;17.144;2023-02-01T03:49:28;100323.25;;;20.25;39.59
77281;BME280;66339;47.262;17.144;2023-02-01T03:51:58;100315.47;;;20.24;39.80
77281;BME280;66339;47.262;17.144;2023-02-01T03:54:33;100336.97;;;20.24;39.62
77281;BME280;66339;47.262;17.144;2023-02-01T03:57:08;100338.84;;;20.23;39.64
77281;BME280;66339;47.262;17.144;2023-02-01T03:59:45;100331.06;;;20.22;39.77
77281;BME280;66339;47.262;17.144;2023-02-01T04:02:16;100332.97;;;20.21;39.72
77281;BME280;66339;47.262;17.144;2023-02-01T04:04:46;100342.63;;;20.22;39.71
77281;BME280;66339;47.262;17.144;2023-02-01T04:07:16;100345.59;;;20.21;39.79
77281;BME280;66339;47.262;17.144;2023-02-01T04:09:47;100359.81;;;20.21;39.72
77281;BME280;66339;47.262;17.144;2023-02-01T04:12:14;100375.13;;;20.21;39.79
77281;BME280;66339;47.262;17.144;2023-02-01T04:14:43;100377.28;;;20.19;39.81
77281;BME280;66339;47.262;17.144;2023-02-01T04:17:10;100376.50;;;20.18;39.74
77281;BME280;66339;47.262;17.144;2023-02-01T04:19:44;100379.47;;;20.17;39.74
77281;BME280;66339;47.262;17.144;2023-02-01T04:22:12;100361.72;;;20.16;39.71
77281;BME280;66339;47.262;17.144;2023-02-01T04:24:39;100354.75;;;20.15;39.59
77281;BME280;66339;47.262;17.144;2023-02-01T04:27:11;100360.13;;;20.15;39.70
77281;BME280;66339;47.262;17.144;2023-02-01T04:29:41;100361.47;;;20.12;39.63
77281;BME280;66339;47.262;17.144;2023-02-01T04:32:12;100366.03;;;20.11;39.72
77281;BME280;66339;47.262;17.144;2023-02-01T04:34:44;100364.44;;;20.10;39.62
77281;BME280;66339;47.262;17.144;2023-02-01T04:37:14;100366.34;;;20.10;39.68
77281;BME280;66339;47.262;17.144;2023-02-01T04:39:51;100357.47;;;20.09;39.67
77281;BME280;66339;47.262;17.144;2023-02-01T04:42:18;100364.19;;;20.07;39.91
77281;BME280;66339;47.262;17.144;2023-02-01T04:44:48;100360.44;;;20.08;39.64
77281;BME280;66339;47.262;17.144;2023-02-01T04:47:16;100352.66;;;20.06;39.69
77281;BME280;66339;47.262;17.144;2023-02-01T04:49:46;100356.44;;;20.05;39.73
77281;BME280;66339;47.262;17.144;2023-02-01T04:52:17;100353.75;;;20.05;39.63
77281;BME280;66339;47.262;17.144;2023-02-01T04:54:47;100357.53;;;20.04;39.63
77281;BME280;66339;47.262;17.144;2023-02-01T04:57:14;100354.84;;;20.04;39.69
77281;BME280;66339;47.262;17.144;2023-02-01T04:59:47;100363.97;;;20.03;39.73
77281;BME280;66339;47.262;17.144;2023-02-01T05:02:21;100367.72;;;20.02;39.57
77281;BME280;66339;47.262;17.144;2023-02-01T05:04:48;100365.34;;;20.01;39.76
77281;BME280;66339;47.262;17.144;2023-02-01T05:07:16;100365.59;;;19.99;39.67
77281;BME280;66339;47.262;17.144;2023-02-01T05:09:46;100368.28;;;19.99;39.65
77281;BME280;66339;47.262;17.144;2023-02-01T05:12:20;100361.31;;;19.98;39.76
77281;BME280;66339;47.262;17.144;2023-02-01T05:14:52;100352.72;;;19.96;39.70
77281;BME280;66339;47.262;17.144;2023-02-01T05:17:22;100352.72;;;19.96;39.83
77281;BME280;66339;47.262;17.144;2023-02-01T05:19:51;100348.44;;;19.95;39.70
77281;BME280;66339;47.262;17.144;2023-02-01T05:22:21;100352.22;;;19.94;39.67
77281;BME280;66339;47.262;17.144;2023-02-01T05:24:51;100347.94;;;19.93;39.87
77281;BME280;66339;47.262;17.144;2023-02-01T05:27:18;100347.94;;;19.93;39.92
77281;BME280;66339;47.262;17.144;2023-02-01T05:29:45;100343.62;;;19.92;39.82
77281;BME280;66339;47.262;17.144;2023-02-01T05:32:16;100344.69;;;19.91;39.84
77281;BME280;66339;47.262;17.144;2023-02-01T05:34:58;100333.16;;;19.91;39.80
77281;BME280;66339;47.262;17.144;2023-02-01T05:37:28;100341.50;;;19.89;39.66
77281;BME280;66339;47.262;17.144;2023-02-01T05:40:05;100338.81;;;19.89;39.91
77281;BME280;66339;47.262;17.144;2023-02-01T05:42:36;100326.47;;;19.88;39.95
77281;BME280;66339;47.262;17.144;2023-02-01T05:45:11;100334.81;;;19.86;39.75
77281;BME280;66339;47.262;17.144;2023-02-01T05:47:41;100335.87;;;19.85;39.89
77281;BME280;66339;47.262;17.144;2023-02-01T05:50:09;100325.16;;;19.85;39.78
77281;BME280;66339;47.262;17.144;2023-02-01T05:52:39;100322.72;;;19.84;40.03
77281;BME280;66339;47.262;17.144;2023-02-01T05:55:12;100327.03;;;19.85;40.07
77281;BME280;66339;47.262;17.144;2023-02-01T05:57:40;100317.34;;;19.84;40.09
77281;BME280;66339;47.262;17.144;2023-02-01T06:00:14;100316.56;;;19.83;40.46
77281;BME280;66339;47.262;17.144;2023-02-01T06:02:41;100311.47;;;19.82;40.55
77281;BME280;66339;47.262;17.144;2023-02-01T06:05:12;100315.75;;;19.83;40.31
77281;BME280;66339;47.262;17.144;2023-02-01T06:07:45;100317.34;;;19.84;40.49
77281;BME280;66339;47.262;17.144;2023-02-01T06:10:16;100328.91;;;19.84;41.22
77281;BME280;66339;47.262;17.144;2023-02-01T06:12:49;100322.19;;;19.87;40.84
77281;BME280;66339;47.262;17.144;2023-02-01T06:15:22;100332.37;;;19.90;40.54
77281;BME280;66339;47.262;17.144;2023-02-01T06:17:50;100328.59;;;19.91;40.70
77281;BME280;66339;47.262;17.144;2023-02-01T06:20:23;100334.50;;;19.93;40.67
77281;BME280;66339;47.262;17.144;2023-02-01T06:22:51;100335.00;;;19.95;40.91
77281;BME280;66339;47.262;17.144;2023-02-01T06:25:21;100339.59;;;19.95;40.93
77281;BME280;66339;47.262;17.144;2023-02-01T06:27:48;100337.44;;;19.97;40.84
77281;BME280;66339;47.262;17.144;2023-02-01T06:30:21;100331.25;;;19.96;40.45
77281;BME280;66339;47.262;17.144;2023-02-01T06:32:54;100339.84;;;19.98;40.34
77281;BME280;66339;47.262;17.144;2023-02-01T06:35:22;100332.88;;;19.97;40.41
77281;BME280;66339;47.262;17.144;2023-02-01T06:37:53;100339.84;;;19.98;40.30
77281;BME280;66339;47.262;17.144;2023-02-01T06:40:24;100340.91;;;19.97;40.66
77281;BME280;66339;47.262;17.144;2023-02-01T06:42:55;100340.91;;;19.97;40.10
77281;BME280;66339;47.262;17.144;2023-02-01T06:45:25;100349.78;;;19.98;39.98
77281;BME280;66339;47.262;17.144;2023-02-01T06:47:56;100352.72;;;19.96;39.43
77281;BME280;66339;47.262;17.144;2023-02-01T06:50:26;100363.47;;;19.96;38.98
77281;BME280;66339;47.262;17.144;2023-02-01T06:52:55;100365.66;;;19.84;31.57
77281;BME280;66339;47.262;17.144;2023-02-01T06:55:21;100365.00;;;19.48;29.77
77281;BME280;66339;47.262;17.144;2023-02-01T06:57:58;100363.53;;;19.11;29.34
77281;BME280;66339;47.262;17.144;2023-02-01T07:00:25;100365.97;;;18.77;31.40
77281;BME280;66339;47.262;17.144;2023-02-01T07:02:58;100378.84;;;18.75;36.11
77281;BME280;66339;47.262;17.144;2023-02-01T07:05:31;100374.03;;;18.87;39.83
77281;BME280;66339;47.262;17.144;2023-02-01T07:08:01;100382.03;;;18.97;40.54
77281;BME280;66339;47.262;17.144;2023-02-01T07:10:34;100390.06;;;19.07;40.82
77281;BME280;66339;47.262;17.144;2023-02-01T07:13:02;100385.22;;;19.15;40.97
77281;BME280;66339;47.262;17.144;2023-02-01T07:15:32;100397.56;;;19.26;40.94
77281;BME280;66339;47.262;17.144;2023-02-01T07:18:05;100396.44;;;19.32;40.66
77281;BME280;66339;47.262;17.144;2023-02-01T07:20:36;100396.16;;;19.38;40.36
77281;BME280;66339;47.262;17.144;2023-02-01T07:23:07;100376.81;;;19.47;40.46
77281;BME280;66339;47.262;17.144;2023-02-01T07:25:39;100376.53;;;19.53;40.36
77281;BME280;66339;47.262;17.144;2023-02-01T07:28:06;100386.72;;;19.61;40.19
77281;BME280;66339;47.262;17.144;2023-02-01T07:30:36;100382.94;;;19.68;40.54
77281;BME280;66339;47.262;17.144;2023-02-01T07:33:03;100371.12;;;19.74;40.80
77281;BME280;66339;47.262;17.144;2023-02-01T07:35:34;100368.41;;;19.79;41.39
77281;BME280;66339;47.262;17.144;2023-02-01T07:38:04;100361.94;;;19.85;41.44
77281;BME280;66339;47.262;17.144;2023-02-01T07:40:33;100382.28;;;19.91;41.76
77281;BME280;66339;47.262;17.144;2023-02-01T07:43:00;100385.75;;;19.97;41.81
77281;BME280;66339;47.262;17.144;2023-02-01T07:45:30;100393.50;;;20.03;42.25
77281;BME280;66339;47.262;17.144;2023-02-01T07:48:03;100385.41;;;20.08;41.92
77281;BME280;66339;47.262;17.144;2023-02-01T07:50:31;100378.41;;;20.13;41.85
77281;BME280;66339;47.262;17.144;2023-02-01T07:52:59;100378.38;;;20.18;41.88
77281;BME280;66339;47.262;17.144;2023-02-01T07:55:29;100378.34;;;20.23;41.78
77281;BME280;66339;47.262;17.144;2023-02-01T07:57:57;100383.94;;;20.26;41.73
77281;BME280;66339;47.262;17.144;2023-02-01T08:00:28;100390.38;;;20.30;41.58
77281;BME280;66339;47.262;17.144;2023-02-01T08:02:57;100389.53;;;20.35;41.41
77281;BME280;66339;47.262;17.144;2023-02-01T08:05:30;100390.31;;;20.41;41.18
77281;BME280;66339;47.262;17.144;2023-02-01T08:07:57;100395.94;;;20.44;41.03
77281;BME280;66339;47.262;17.144;2023-02-01T08:10:27;100398.03;;;20.47;40.91
77281;BME280;66339;47.262;17.144;2023-02-01T08:13:05;100398.03;;;20.52;40.97
77281;BME280;66339;47.262;17.144;2023-02-01T08:15:33;100399.63;;;20.53;41.07
77281;BME280;66339;47.262;17.144;2023-02-01T08:17:59;100409.59;;;20.53;41.18
77281;BME280;66339;47.262;17.144;2023-02-01T08:20:32;100403.41;;;20.52;41.23
77281;BME280;66339;47.262;17.144;2023-02-01T08:23:06;100408.25;;;20.55;41.15
77281;BME280;66339;47.262;17.144;2023-02-01T08:25:34;100416.00;;;20.57;41.11
77281;BME280;66339;47.262;17.144;2023-02-01T08:28:05;100410.34;;;20.58;41.09
77281;BME280;66339;47.262;17.144;2023-02-01T08:30:38;100412.47;;;20.62;41.23
77281;BME280;66339;47.262;17.144;2023-02-01T08:33:10;100419.44;;;20.63;41.13
77281;BME280;66339;47.262;17.144;2023-02-01T08:35:38;100428.31;;;20.63;41.07
77281;BME280;66339;47.262;17.144;2023-02-01T08:38:12;100417.28;;;20.65;41.03
77281;BME280;66339;47.262;17.144;2023-02-01T08:40:43;100402.81;;;20.61;40.88
77281;BME280;66339;47.262;17.144;2023-02-01T08:43:13;100373.53;;;20.59;41.20
77281;BME280;66339;47.262;17.144;2023-02-01T08:45:43;100342.37;;;20.58;41.24
77281;BME280;66339;47.262;17.144;2023-02-01T08:48:14;100340.47;;;20.58;41.17
77281;BME280;66339;47.262;17.144;2023-02-01T08:50:45;100345.91;;;20.53;41.14
77281;BME280;66339;47.262;17.144;2023-02-01T08:53:12;100336.47;;;20.56;41.32
77281;BME280;66339;47.262;17.144;2023-02-01T08:55:45;100330.56;;;20.54;41.42
77281;BME280;66339;47.262;17.144;2023-02-01T08:58:16;100320.62;;;20.54;41.11
77281;BME280;66339;47.262;17.144;2023-02-01T09:00:46;100349.13;;;20.55;41.04
77281;BME280;66339;47.262;17.144;2023-02-01T09:03:13;100360.91;;;20.59;41.33
77281;BME280;66339;47.262;17.144;2023-02-01T09:05:46;100367.31;;;20.64;41.37
77281;BME280;66339;47.262;17.144;2023-02-01T09:08:18;100360.31;;;20.68;41.17
77281;BME280;66339;47.262;17.144;2023-02-01T09:10:48;100357.84;;;20.71;41.01
77281;BME280;66339;47.262;17.144;2023-02-01T09:13:18;100363.44;;;20.75;41.22
77281;BME280;66339;47.262;17.144;2023-02-01T09:15:45;100351.06;;;20.79;41.34
77281;BME280;66339;47.262;17.144;2023-02-01T09:18:12;100357.47;;;20.83;41.60
77281;BME280;66339;47.262;17.144;2023-02-01T09:20:45;100355.81;;;20.87;41.66
77281;BME280;66339;47.262;17.144;2023-02-01T09:23:12;100353.62;;;20.89;41.81
77281;BME280;66339;47.262;17.144;2023-02-01T09:25:39;100344.47;;;20.90;41.56
77281;BME280;66339;47.262;17.144;2023-02-01T09:28:09;100349.84;;;20.90;41.63
77281;BME280;66339;47.262;17.144;2023-02-01T09:30:39;100347.69;;;20.92;41.73
77281;BME280;66339;47.262;17.144;2023-02-01T09:33:10;100340.72;;;20.91;41.71
77281;BME280;66339;47.262;17.144;2023-02-01T09:35:37;100347.69;;;20.92;41.62
77281;BME280;66339;47.262;17.144;2023-02-01T09:38:04;100336.66;;;20.94;41.52
77281;BME280;66339;47.262;17.144;2023-02-01T09:40:34;100328.31;;;20.95;41.61
77281;BME280;66339;47.262;17.144;2023-02-01T09:43:25;100315.66;;;20.96;41.52
77281;BME280;66339;47.262;17.144;2023-02-01T09:49:03;100305.72;;;20.96;41.34
77281;BME280;66339;47.262;17.144;2023-02-01T09:51:44;100300.31;;;20.96;41.09
77281;BME280;66339;47.262;17.144;2023-02-01T09:54:22;100295.50;;;20.93;40.95
77281;BME280;66339;47.262;17.144;2023-02-01T09:57:04;100273.50;;;20.91;41.00
77281;BME280;66339;47.262;17.144;2023-02-01T10:00:14;100273.78;;;20.90;41.07
77281;BME280;66339;47.262;17.144;2023-02-01T10:02:46;100274.56;;;20.90;41.18
77281;BME280;66339;47.262;17.144;2023-02-01T10:05:19;100276.19;;;20.91;41.36
77281;BME280;66339;47.262;17.144;2023-02-01T10:08:28;100293.12;;;20.92;41.24
77281;BME280;66339;47.262;17.144;2023-02-01T10:11:09;100301.69;;;20.94;41.54
77281;BME280;66339;47.262;17.144;2023-02-01T10:28:24;100289.00;;;20.99;40.98
77281;BME280;66339;47.262;17.144;2023-02-01T10:31:00;100276.38;;;21.00;41.10
77281;BME280;66339;47.262;17.144;2023-02-01T10:33:39;100290.59;;;21.00;41.09
77281;BME280;66339;47.262;17.144;2023-02-01T10:36:40;100300.56;;;21.00;40.89
77281;BME280;66339;47.262;17.144;2023-02-01T10:39:13;100292.75;;;20.98;41.35
77281;BME280;66339;47.262;17.144;2023-02-01T10:41:43;100295.97;;;21.00;41.31
77281;BME280;66339;47.262;17.144;2023-02-01T10:44:15;100280.66;;;21.01;41.23
77281;BME280;66339;47.262;17.144;2023-02-01T10:46:49;100281.44;;;21.01;40.92
77281;BME280;66339;47.262;17.144;2023-02-01T10:49:27;100270.13;;;21.04;41.38
77281;BME280;66339;47.262;17.144;2023-02-01T10:52:20;100278.19;;;21.04;41.59
77281;BME280;66339;47.262;17.144;2023-02-01T10:54:54;100258.78;;;21.07;41.50
77281;BME280;66339;47.262;17.144;2023-02-01T10:57:23;100266.00;;;21.12;41.47
77281;BME280;66339;47.262;17.144;2023-02-01T10:59:51;100264.63;;;21.15;41.90
77281;BME280;66339;47.262;17.144;2023-02-01T11:02:36;100268.59;;;21.17;41.68
77281;BME280;66339;47.262;17.144;2023-02-01T11:05:10;100262.97;;;21.19;41.62
77281;BME280;66339;47.262;17.144;2023-02-01T11:07:49;100245.72;;;21.20;41.42
77281;BME280;66339;47.262;17.144;2023-02-01T11:10:38;100248.91;;;21.22;41.34
77281;BME280;66339;47.262;17.144;2023-02-01T11:13:14;100249.44;;;21.24;41.30
77281;BME280;66339;47.262;17.144;2023-02-01T11:15:53;100249.94;;;21.26;41.30
77281;BME280;66339;47.262;17.144;2023-02-01T11:18:39;100251.56;;;21.27;41.34
77281;BME280;66339;47.262;17.144;2023-02-01T11:21:08;100247.78;;;21.28;42.03
77281;BME280;66339;47.262;17.144;2023-02-01T11:23:43;100241.59;;;21.27;42.19
77281;BME280;66339;47.262;17.144;2023-02-01T11:26:14;100241.94;;;21.21;41.88
77281;BME280;66339;47.262;17.144;2023-02-01T11:29:13;100248.41;;;21.20;41.87
77281;BME280;66339;47.262;17.144;2023-02-01T11:31:39;100241.50;;;21.14;42.03
77281;BME280;66339;47.262;17.144;2023-02-01T11:34:21;100233.19;;;21.10;42.14
77281;BME280;66339;47.262;17.144;2023-02-01T11:36:52;100223.31;;;21.05;42.29
77281;BME280;66339;47.262;17.144;2023-02-01T11:39:26;100219.59;;;21.01;42.37
77281;BME280;66339;47.262;17.144;2023-02-01T11:42:16;100222.84;;;20.98;42.41
77281;BME280;66339;47.262;17.144;2023-02-01T11:44:47;100218.06;;;20.95;42.47
77281;BME280;66339;47.262;17.144;2023-02-01T11:47:40;100208.91;;;20.96;43.82
77281;BME280;66339;47.262;17.144;2023-02-01T11:50:39;100215.88;;;20.97;43.30
77281;BME280;66339;47.262;17.144;2023-02-01T11:53:25;100205.66;;;20.99;43.32
77281;BME280;66339;47.262;17.144;2023-02-01T12:01:49;100181.38;;;21.04;43.03
77281;BME280;66339;47.262;17.144;2023-02-01T12:04:51;100174.91;;;21.05;43.10
77281;BME280;66339;47.262;17.144;2023-02-01T12:07:42;100172.22;;;21.05;43.11
77281;BME280;66339;47.262;17.144;2023-02-01T12:29:48;100140.47;;;21.07;42.54
77281;BME280;66339;47.262;17.144;2023-02-01T12:35:44;100164.94;;;21.06;42.69
77281;BME280;66339;47.262;17.144;2023-02-01T12:44:04;100197.81;;;21.03;42.60
77281;BME280;66339;47.262;17.144;2023-02-01T12:46:49;100180.84;;;21.02;42.54
77281;BME280;66339;47.262;17.144;2023-02-01T12:49:33;100183.84;;;21.01;42.50
77281;BME280;66339;47.262;17.144;2023-02-01T12:52:10;100183.03;;;21.00;42.46
77281;BME280;66339;47.262;17.144;2023-02-01T12:55:00;100172.28;;;21.00;42.51
77281;BME280;66339;47.262;17.144;2023-02-01T12:57:36;100179.84;;;20.98;42.42
77281;BME280;66339;47.262;17.144;2023-02-01T13:00:32;100180.94;;;20.97;42.31
77281;BME280;66339;47.262;17.144;2023-02-01T13:06:02;100191.69;;;20.97;42.23
77281;BME280;66339;47.262;17.144;2023-02-01T13:08:45;100196.56;;;20.95;42.31
77281;BME280;66339;47.262;17.144;2023-02-01T13:11:37;100200.31;;;20.94;42.27
77281;BME280;66339;47.262;17.144;2023-02-01T13:16:46;100207.88;;;20.92;42.14
77281;BME280;66339;47.262;17.144;2023-02-01T13:22:30;100208.97;;;20.91;42.16
77281;BME280;66339;47.262;17.144;2023-02-01T13:25:46;100211.66;;;20.91;42.22
77281;BME280;66339;47.262;17.144;2023-02-01T13:27:47;100224.03;;;20.92;42.20
77281;BME280;66339;47.262;17.144;2023-02-01T13:30:23;100229.41;;;20.92;42.08
77281;BME280;66339;47.262;17.144;2023-02-01T13:41:34;100243.34;;;20.94;41.91
77281;BME280;66339;47.262;17.144;2023-02-01T13:44:14;100260.28;;;20.95;41.89
77281;BME280;66339;47.262;17.144;2023-02-01T13:46:50;100249.81;;;20.93;41.85
77281;BME280;66339;47.262;17.144;2023-02-01T13:49:25;100243.34;;;20.94;41.87
77281;BME280;66339;47.262;17.144;2023-02-01T13:51:56;100253.28;;;20.94;41.89
77281;BME280;66339;47.262;17.144;2023-02-01T13:54:37;100257.87;;;20.93;41.88
77281;BME280;66339;47.262;17.144;2023-02-01T13:57:46;100250.91;;;20.92;41.88
77281;BME280;66339;47.262;17.144;2023-02-01T14:10:57;100233.19;;;20.91;41.83
77281;BME280;66339;47.262;17.144;2023-02-01T14:13:35;100219.22;;;20.89;41.87
77281;BME280;66339;47.262;17.144;2023-02-01T14:26:49;100200.63;;;20.93;41.93
77281;BME280;66339;47.262;17.144;2023-02-01T14:29:36;100204.09;;;20.93;41.94
77281;BME280;66339;47.262;17.144;2023-02-01T14:32:21;100206.53;;;20.95;41.95
77281;BME280;66339;47.262;17.144;2023-02-01T14:34:57;100207.31;;;20.95;41.93
77281;BME280;66339;47.262;17.144;2023-02-01T14:37:29;100210.50;;;20.97;42.43
77281;BME280;66339;47.262;17.144;2023-02-01T14:47:49;100205.34;;;21.01;42.70
77281;BME280;66339;47.262;17.144;2023-02-01T14:53:55;100207.75;;;21.02;43.00
77281;BME280;66339;47.262;17.144;2023-02-01T14:56:09;100213.13;;;21.02;42.85
77281;BME280;66339;47.262;17.144;2023-02-01T14:59:06;100212.06;;;21.03;42.89
77281;BME280;66339;47.262;17.144;2023-02-01T15:01:39;100220.69;;;21.00;42.84
77281;BME280;66339;47.262;17.144;2023-02-01T15:04:15;100241.41;;;21.00;41.87
77281;BME280;66339;47.262;17.144;2023-02-01T15:06:59;100243.87;;;20.72;38.68
77281;BME280;66339;47.262;17.144;2023-02-01T15:09:37;100250.75;;;20.54;37.31
77281;BME280;66339;47.262;17.144;2023-02-01T15:14:46;100254.94;;;20.66;36.59
77281;BME280;66339;47.262;17.144;2023-02-01T15:17:21;100261.91;;;20.67;36.92
77281;BME280;66339;47.262;17.144;2023-02-01T15:20:02;100263.00;;;20.66;37.25
77281;BME280;66339;47.262;17.144;2023-02-01T15:22:34;100268.94;;;20.63;37.23
77281;BME280;66339;47.262;17.144;2023-02-01T15:25:02;100238.56;;;20.67;39.12
77281;BME280;66339;47.262;17.144;2023-02-01T15:27:36;100244.13;;;20.71;39.24
77281;BME280;66339;47.262;17.144;2023-02-01T15:30:24;100235.25;;;20.75;39.69